Omaha, Nebraska
Current Conditions -  °F | °C
As of 4:52 PM on Thursday 27 Nov 2014 (Local Time) from KOMA Reporting Station
Broken Clouds Broken Clouds  
Wind Chill: 10°   Ceiling: 14000
Heat Index: 23°   Visibility: 10mi
Dew Point: 10°   Wind: 16mph
Humidity: 58%   Direction: 140°SE
Pressure: 30.33"   Gusts: NA
Location:  41.26°N, 95.94°W
Report Text: KOMA 272252Z 14014KT 10SM FEW055 BKN140 BKN200 M05/M12 A3033 RMK AO2 SLP287 T10501122
Loading
Personal Weather Stations






























Interactive Weather Map New forecast layout! Learn more

10-Day Weather Forecast

Advertisements
Track Severe Weather on mobile